TimeEST,TemperatureF,Dew PointF,Humidity,Sea Level PressureIn,VisibilityMPH,Wind Direction,Wind SpeedMPH,Gust SpeedMPH,PrecipitationIn,Events,Conditions,WindDirDegrees,DateUTC
6:00 AM,77.0,77.0,100,29.95,6.2,East,3.5,-,N/A,,Scattered Clouds,90,2012-12-09 11:00:00
7:00 AM,76,76,100,29.98,6,,2.3,,,,,,2012-12-09 12:00:00
7:00 AM,77.0,77.0,100,29.98,6.2,Variable,2.3,-,N/A,,Scattered Clouds,0,2012-12-09 12:00:00
8:00 AM,78.8,77.0,94,29.98,6.2,East,3.5,-,N/A,,Mostly Cloudy,90,2012-12-09 13:00:00
9:00 AM,80.6,78.8,94,30.01,6.2,East,4.6,-,N/A,,Mostly Cloudy,80,2012-12-09 14:00:00
10:00 AM,82.4,78.8,89,30.01,6.2,ENE,5.8,-,N/A,,Mostly Cloudy,70,2012-12-09 15:00:00
11:00 AM,82.4,78.8,89,30.01,4.3,East,6.9,-,N/A,Rain,Light Rain Showers,100,2012-12-09 16:00:00
12:00 PM,84.2,78.8,84,29.98,5.6,ESE,8.1,-,N/A,,Scattered Clouds,110,2012-12-09 17:00:00
1:00 PM,83,79,85,29.98,6,ESE,8.1,,,,Partly Cloudy,110,2012-12-09 18:00:00
1:00 PM,82.4,78.8,89,29.98,6.2,ESE,8.1,-,N/A,,Mostly Cloudy,110,2012-12-09 18:00:00
2:00 PM,84.2,77.0,79,29.95,6.2,East,10.4,-,N/A,,Mostly Cloudy,100,2012-12-09 19:00:00
3:00 PM,82.4,78.8,89,29.92,6.2,East,10.4,-,N/A,,Scattered Clouds,100,2012-12-09 20:00:00
4:00 PM,80.6,78.8,94,29.92,6.2,East,5.8,-,N/A,,Partly Cloudy,100,2012-12-09 21:00:00
5:00 PM,82.4,78.8,89,29.92,6.2,East,10.4,-,N/A,,Mostly Cloudy,90,2012-12-09 22:00:00
6:00 PM,80.6,78.8,94,29.95,6.2,East,5.8,-,N/A,,Scattered Clouds,100,2012-12-09 23:00:00
7:00 PM,80,78,93,29.96,6,ESE,4.6,,,,Partly Cloudy,120,2012-12-10 00:00:00
7:00 PM,80.6,78.8,94,29.95,6.2,ESE,4.6,-,N/A,,Mostly Cloudy,120,2012-12-10 00:00:00
8:00 PM,80.6,78.8,94,29.95,6.2,ESE,8.1,-,N/A,,Mostly Cloudy,110,2012-12-10 01:00:00
9:00 PM,80.6,78.8,94,29.98,6.2,East,4.6,-,N/A,,Mostly Cloudy,100,2012-12-10 02:00:00
10:00 PM,78.8,78.8,100,30.01,6.2,East,4.6,-,N/A,,Scattered Clouds,90,2012-12-10 03:00:00